Time;durP1;ratioP1;P1;durP2;ratioP2;P2;SDS_P1;SDS_P2;PMS_P1;PMS_P2;Temp;Humidity;BMP_temperature;BMP_pressure;BME280_temperature;BME280_humidity;BME280_pressure;Samples;Min_cycle;Max_cycle;Signal;HPM_P1;HPM_P2
2022/07/08 00:00:17;;;;;;;4.53;1.50;;;589.20;1459.20;;;;;;5093761;28;20024;-78
2022/07/08 00:02:43;;;;;;;6.28;1.48;;;589.20;1459.20;;;;;;5092120;28;20024;-78
2022/07/08 00:05:09;;;;;;;2.80;1.60;;;589.10;1484.80;;;;;;5092311;28;20027;-78
2022/07/08 00:07:35;;;;;;;3.28;1.80;;;589.00;1484.80;;;;;;5092131;28;20024;-78
2022/07/08 00:10:05;;;;;;;5.25;1.67;;;589.10;1484.80;;;;;;5092429;28;20043;-78
2022/07/08 00:12:31;;;;;;;5.88;1.80;;;589.00;1484.80;;;;;;5091980;28;20023;-78
2022/07/08 00:14:57;;;;;;;4.78;1.40;;;589.00;1484.80;;;;;;5093066;28;20017;-77
2022/07/08 00:17:22;;;;;;;6.55;1.50;;;589.00;1484.80;;;;;;5092085;28;20052;-78
2022/07/08 00:19:48;;;;;;;2.90;1.20;;;589.00;1484.80;;;;;;5091632;28;20497;-77
2022/07/08 00:22:14;;;;;;;2.78;1.20;;;588.90;1484.80;;;;;;5088743;28;20509;-77
2022/07/08 00:24:39;;;;;;;2.50;1.27;;;564.10;1510.40;;;;;;5091182;28;20486;-78
2022/07/08 00:27:05;;;;;;;4.35;1.40;;;564.10;1536.00;;;;;;5092279;28;20139;-78
2022/07/08 00:29:31;;;;;;;6.80;1.52;;;564.10;1536.00;;;;;;5091286;28;20032;-77
2022/07/08 00:31:57;;;;;;;2.55;1.75;;;588.80;1561.60;;;;;;5092296;28;20428;-78
2022/07/08 00:34:22;;;;;;;4.28;1.70;;;564.10;1536.00;;;;;;5106823;28;20027;-78
2022/07/08 00:36:49;;;;;;;4.85;2.58;;;564.10;1536.00;;;;;;5091584;28;20016;-78
2022/07/08 00:39:14;;;;;;;5.03;2.60;;;564.10;1536.00;;;;;;5090247;28;20024;-78
2022/07/08 00:41:40;;;;;;;10.75;3.70;;;588.90;1536.00;;;;;;5095414;28;20107;-77
2022/07/08 00:44:06;;;;;;;7.22;2.97;;;588.90;1536.00;;;;;;5095273;28;20073;-77
2022/07/08 00:46:32;;;;;;;10.23;3.10;;;588.80;1536.00;;;;;;5092533;28;20019;-78
2022/07/08 00:48:57;;;;;;;5.45;2.63;;;588.90;1536.00;;;;;;5092386;28;20580;-78
2022/07/08 00:51:24;;;;;;;7.45;2.60;;;588.90;1536.00;;;;;;5095480;28;20024;-78
2022/07/08 00:53:51;;;;;;;2.80;2.03;;;588.80;1536.00;;;;;;5092516;28;20020;-78
2022/07/08 00:56:19;;;;;;;4.85;2.53;;;588.80;1536.00;;;;;;5091458;28;20082;-78
2022/07/08 00:58:47;;;;;;;5.97;2.65;;;588.80;1536.00;;;;;;5104265;28;20031;-78
2022/07/08 01:01:13;;;;;;;4.80;2.88;;;588.90;1536.00;;;;;;5103423;28;20020;-78
2022/07/08 01:03:39;;;;;;;6.95;3.95;;;589.00;1536.00;;;;;;5090950;28;20035;-78
2022/07/08 01:06:05;;;;;;;11.45;4.10;;;588.90;1536.00;;;;;;5090846;28;20024;-78
2022/07/08 01:08:32;;;;;;;7.28;3.72;;;588.80;1561.60;;;;;;5090596;28;20039;-78
2022/07/08 01:10:58;;;;;;;13.23;4.35;;;588.90;1561.60;;;;;;5091089;28;20019;-77
2022/07/08 01:13:24;;;;;;;6.45;4.13;;;588.90;1536.00;;;;;;5090662;28;20016;-77
2022/07/08 01:15:50;;;;;;;7.20;4.43;;;588.80;1561.60;;;;;;5092040;28;20091;-78
2022/07/08 01:18:27;;;;;;;6.68;3.83;;;588.90;1536.00;;;;;;5091922;28;20137;-78
2022/07/08 01:20:53;;;;;;;7.68;3.33;;;588.90;1536.00;;;;;;5090660;28;20023;-77
2022/07/08 01:23:18;;;;;;;7.43;3.55;;;588.80;1536.00;;;;;;5091684;28;20024;-78
2022/07/08 01:25:46;;;;;;;8.25;3.55;;;588.80;1536.00;;;;;;5090373;28;20024;-78
2022/07/08 01:28:12;;;;;;;5.18;3.25;;;588.80;1561.60;;;;;;5090426;28;20040;-78
2022/07/08 01:30:38;;;;;;;6.45;3.47;;;588.80;1536.00;;;;;;5090395;28;20024;-77
2022/07/08 01:33:04;;;;;;;7.88;4.25;;;588.80;1561.60;;;;;;5091958;28;20478;-77
2022/07/08 01:35:30;;;;;;;11.23;3.45;;;588.80;1561.60;;;;;;5090229;28;20031;-78
2022/07/08 01:37:55;;;;;;;3.88;2.28;;;588.80;1561.60;;;;;;5090575;28;20497;-77
2022/07/08 01:40:21;;;;;;;6.90;2.00;;;588.80;1561.60;;;;;;5090102;28;20035;-78
2022/07/08 01:42:47;;;;;;;2.97;2.00;;;588.80;1536.00;;;;;;5091972;28;20087;-77
2022/07/08 01:45:12;;;;;;;5.30;1.88;;;588.80;1536.00;;;;;;5094201;28;20043;-77
2022/07/08 01:47:38;;;;;;;3.33;1.92;;;588.80;1561.60;;;;;;5096125;28;20091;-78
2022/07/08 01:50:05;;;;;;;10.00;2.15;;;588.80;1536.00;;;;;;5094241;28;20486;-77
2022/07/08 01:52:31;;;;;;;4.15;1.70;;;588.80;1536.00;;;;;;5094293;28;20055;-78
2022/07/08 01:54:56;;;;;;;4.53;1.88;;;588.80;1561.60;;;;;;5094111;28;20059;-78
2022/07/08 01:57:22;;;;;;;4.25;1.90;;;588.80;1561.60;;;;;;5093995;28;20028;-78
2022/07/08 01:59:50;;;;;;;5.30;1.77;;;588.80;1561.60;;;;;;5104981;28;20459;-78
2022/07/08 02:02:19;;;;;;;4.93;1.55;;;588.80;1561.60;;;;;;5099941;28;20045;-78
2022/07/08 02:04:45;;;;;;;4.03;1.35;;;588.80;1561.60;;;;;;5094473;28;20074;-78
2022/07/08 02:07:11;;;;;;;8.18;2.05;;;588.80;1561.60;;;;;;5095439;28;20477;-77
2022/07/08 02:09:38;;;;;;;3.97;1.52;;;564.10;1561.60;;;;;;5095604;28;20531;-78
2022/07/08 02:12:20;;;;;;;3.92;1.50;;;564.10;1587.20;;;;;;5094092;28;20020;-77
2022/07/08 02:15:01;;;;;;;2.28;1.58;;;588.80;1561.60;;;;;;5106331;28;20020;-77
2022/07/08 02:17:29;;;;;;;5.93;1.40;;;564.10;1587.20;;;;;;5092411;28;20028;-78
2022/07/08 02:19:55;;;;;;;8.52;1.88;;;563.90;1587.20;;;;;;5093667;28;20032;-78
2022/07/08 02:22:21;;;;;;;3.88;1.63;;;564.00;1587.20;;;;;;5094007;28;20363;-78
2022/07/08 02:24:47;;;;;;;5.63;2.35;;;588.80;1587.20;;;;;;5093865;28;20031;-78
2022/07/08 02:27:13;;;;;;;5.20;2.92;;;564.10;1587.20;;;;;;5110356;28;20443;-77
2022/07/08 02:29:39;;;;;;;7.20;2.20;;;588.80;1587.20;;;;;;5091137;28;20503;-78
2022/07/08 02:32:05;;;;;;;3.50;2.28;;;588.80;1587.20;;;;;;5095075;28;20027;-77
2022/07/08 02:34:31;;;;;;;4.93;2.42;;;588.90;1587.20;;;;;;5093850;28;20020;-77
2022/07/08 02:36:57;;;;;;;6.88;2.17;;;564.10;1587.20;;;;;;5092420;28;20038;-77
2022/07/08 02:39:23;;;;;;;5.68;2.00;;;564.10;1587.20;;;;;;5092875;28;20111;-78
2022/07/08 02:41:49;;;;;;;4.13;1.65;;;588.80;1587.20;;;;;;5094651;28;20586;-78
2022/07/08 02:44:15;;;;;;;3.42;1.88;;;564.10;1612.80;;;;;;5093556;28;20385;-77
2022/07/08 02:46:41;;;;;;;8.02;2.20;;;564.10;1638.40;;;;;;5094664;28;20020;-78
2022/07/08 02:49:11;;;;;;;3.67;2.05;;;563.90;1638.40;;;;;;5093529;28;20500;-78
2022/07/08 02:51:37;;;;;;;6.00;1.98;;;563.60;1689.60;;;;;;5094788;28;20016;-78
2022/07/08 02:54:04;;;;;;;4.93;1.98;;;563.50;1715.20;;;;;;5091655;28;20040;-77
2022/07/08 02:56:34;;;;;;;10.20;2.45;;;563.50;1715.20;;;;;;5092871;28;20047;-78
2022/07/08 02:59:01;;;;;;;6.18;2.22;;;563.50;1740.80;;;;;;5093044;28;20024;-78
2022/07/08 03:01:27;;;;;;;2.97;1.85;;;563.60;1740.80;;;;;;5094477;28;20063;-77
2022/07/08 03:03:53;;;;;;;2.90;1.63;;;563.70;1740.80;;;;;;5093084;28;20513;-78
2022/07/08 03:06:19;;;;;;;4.07;1.70;;;563.80;1740.80;;;;;;5092664;28;20062;-78
2022/07/08 03:08:45;;;;;;;10.27;2.40;;;563.80;1740.80;;;;;;5092887;28;20082;-77
2022/07/08 03:11:10;;;;;;;4.45;1.88;;;563.80;1766.40;;;;;;5093128;28;20055;-78
2022/07/08 03:13:36;;;;;;;3.58;1.90;;;563.80;1766.40;;;;;;5092767;28;20082;-77
2022/07/08 03:16:03;;;;;;;6.72;2.15;;;563.90;1766.40;;;;;;5094503;28;20423;-78
2022/07/08 03:18:30;;;;;;;3.13;1.98;;;563.90;1766.40;;;;;;5105645;28;20024;-78
2022/07/08 03:20:56;;;;;;;7.10;2.53;;;563.80;1792.00;;;;;;5112928;28;20028;-77
2022/07/08 03:23:22;;;;;;;3.92;2.42;;;563.80;1792.00;;;;;;5099249;28;20381;-76
2022/07/08 03:25:48;;;;;;;9.43;3.20;;;563.90;1766.40;;;;;;5092388;28;20059;-77
2022/07/08 03:28:14;;;;;;;5.95;2.85;;;563.80;1792.00;;;;;;5092777;28;20069;-77
2022/07/08 03:30:40;;;;;;;5.55;2.90;;;563.80;1817.60;;;;;;5092527;28;20021;-77
2022/07/08 03:33:06;;;;;;;6.60;3.33;;;563.80;1843.20;;;;;;5092991;28;20043;-77
2022/07/08 03:35:32;;;;;;;8.13;3.25;;;563.70;1843.20;;;;;;5092235;28;20127;-77
2022/07/08 03:37:57;;;;;;;8.27;3.83;;;563.70;1868.80;;;;;;5093665;28;20509;-77
2022/07/08 03:43:07;;;;;;;4.35;2.97;;;563.70;1920.00;;;;;;5091786;28;20058;-78
2022/07/08 03:45:33;;;;;;;6.53;3.25;;;563.70;1945.60;;;;;;5093676;28;20028;-77
2022/07/08 03:48:00;;;;;;;7.90;3.28;;;563.70;1945.60;;;;;;5092126;28;20016;-77
2022/07/08 03:50:27;;;;;;;8.55;3.00;;;563.70;1945.60;;;;;;5092194;28;20122;-77
2022/07/08 03:52:53;;;;;;;8.35;3.28;;;563.80;1945.60;;;;;;5091848;28;20016;-77
2022/07/08 03:55:23;;;;;;;5.40;3.30;;;563.70;1971.20;;;;;;5091522;28;20050;-78
2022/07/08 03:57:48;;;;;;;6.53;3.47;;;563.70;1996.80;;;;;;5092091;28;20020;-77
2022/07/08 04:00:15;;;;;;;7.57;3.28;;;563.80;1996.80;;;;;;5093000;28;20535;-77
2022/07/08 04:02:41;;;;;;;5.32;2.83;;;563.70;1996.80;;;;;;5091969;28;20020;-76
2022/07/08 04:05:07;;;;;;;4.22;2.63;;;563.70;2022.40;;;;;;5093005;28;20047;-77
2022/07/08 04:07:34;;;;;;;9.82;2.90;;;563.70;2022.40;;;;;;5091240;28;20031;-77
2022/07/08 04:10:00;;;;;;;5.88;3.42;;;563.60;2048.00;;;;;;5091394;28;20028;-76
2022/07/08 04:12:25;;;;;;;4.13;2.85;;;563.70;2048.00;;;;;;5093063;28;20023;-77
2022/07/08 04:14:51;;;;;;;7.53;2.78;;;563.60;2099.20;;;;;;5092955;28;20031;-77
2022/07/08 04:17:17;;;;;;;4.95;2.65;;;563.70;2099.20;;;;;;5091581;28;20516;-76
2022/07/08 04:19:43;;;;;;;7.82;3.58;;;563.70;2099.20;;;;;;5091784;28;20051;-78
2022/07/08 04:22:08;;;;;;;5.30;3.22;;;563.70;2124.80;;;;;;5092836;28;20030;-77
2022/07/08 04:24:34;;;;;;;8.13;2.88;;;563.60;2124.80;;;;;;5091227;28;20040;-77
2022/07/08 04:27:00;;;;;;;5.72;3.22;;;563.80;2099.20;;;;;;5091291;28;20032;-78
2022/07/08 04:29:25;;;;;;;6.22;2.88;;;563.70;2099.20;;;;;;5091532;28;20062;-77
2022/07/08 04:31:51;;;;;;;9.77;3.63;;;563.60;2150.40;;;;;;5092728;28;20073;-77
2022/07/08 04:34:17;;;;;;;12.40;4.03;;;563.80;2124.80;;;;;;5077374;28;20031;-77
2022/07/08 04:36:42;;;;;;;5.10;3.47;;;563.80;2124.80;;;;;;5091603;28;20049;-79
2022/07/08 04:39:08;;;;;;;6.88;3.13;;;563.70;2124.80;;;;;;5077512;28;20032;-78
2022/07/08 04:41:34;;;;;;;6.50;3.50;;;563.70;2150.40;;;;;;5091024;28;20027;-77
2022/07/08 04:44:00;;;;;;;8.90;3.40;;;563.80;2150.40;;;;;;5079339;28;20025;-78
2022/07/08 04:46:25;;;;;;;7.35;3.40;;;563.70;2150.40;;;;;;5105825;28;20028;-78
2022/07/08 04:48:52;;;;;;;8.70;3.75;;;563.70;2150.40;;;;;;5090681;28;20032;-75
2022/07/08 04:51:18;;;;;;;4.90;3.25;;;563.60;2176.00;;;;;;5092255;28;20043;-78
2022/07/08 04:53:44;;;;;;;7.38;3.58;;;563.60;2176.00;;;;;;5092235;28;20070;-75
2022/07/08 04:56:10;;;;;;;9.35;4.00;;;563.80;2176.00;;;;;;5092177;28;20505;-75
2022/07/08 04:58:36;;;;;;;7.38;3.50;;;563.70;2201.60;;;;;;5090974;28;20123;-76
2022/07/08 05:01:02;;;;;;;5.90;3.65;;;563.70;2201.60;;;;;;5091211;28;20115;-76
2022/07/08 05:03:28;;;;;;;9.90;3.67;;;563.50;2252.80;;;;;;5092327;28;20523;-76
2022/07/08 05:05:53;;;;;;;8.68;4.20;;;563.50;2278.40;;;;;;5092522;28;20024;-76
2022/07/08 05:08:19;;;;;;;8.32;3.83;;;563.50;2252.80;;;;;;5076315;28;20393;-75
2022/07/08 05:10:45;;;;;;;7.25;4.35;;;563.60;2252.80;;;;;;5092508;28;20382;-78
2022/07/08 05:13:12;;;;;;;10.95;3.80;;;563.60;2278.40;;;;;;5087680;28;20059;-78
2022/07/08 05:15:38;;;;;;;7.53;3.60;;;563.60;2278.40;;;;;;5080313;28;20076;-78
2022/07/08 05:18:05;;;;;;;7.80;4.20;;;563.60;2278.40;;;;;;5088733;28;20135;-77
2022/07/08 05:20:31;;;;;;;10.68;3.67;;;563.50;2304.00;;;;;;5087111;28;20020;-78
2022/07/08 05:22:57;;;;;;;15.02;4.15;;;563.60;2304.00;;;;;;5093063;28;20047;-76
2022/07/08 05:25:23;;;;;;;8.48;4.00;;;563.60;2304.00;;;;;;5090217;28;20478;-76
2022/07/08 05:27:50;;;;;;;10.35;4.07;;;563.50;2329.60;;;;;;5091715;28;20024;-76
2022/07/08 05:30:15;;;;;;;6.80;3.72;;;563.40;2355.20;;;;;;5092089;28;20442;-77
2022/07/08 05:32:41;;;;;;;8.63;3.42;;;563.20;2406.40;;;;;;5077355;28;20032;-77
2022/07/08 05:35:08;;;;;;;7.90;3.40;;;563.50;2380.80;;;;;;5091444;28;20478;-77
2022/07/08 05:37:37;;;;;;;7.13;3.10;;;563.60;2380.80;;;;;;5090680;28;20024;-78
2022/07/08 05:40:13;;;;;;;6.00;3.58;;;563.50;2406.40;;;;;;5090691;28;20031;-77
2022/07/08 05:42:39;;;;;;;7.67;3.50;;;563.60;2406.40;;;;;;5090335;28;20485;-78
2022/07/08 05:45:06;;;;;;;4.55;3.20;;;563.50;2432.00;;;;;;5076456;28;20260;-78
2022/07/08 05:47:33;;;;;;;5.07;3.17;;;563.70;2432.00;;;;;;5080946;28;20130;-78
2022/07/08 05:49:59;;;;;;;8.07;3.53;;;563.50;2432.00;;;;;;5086905;28;20070;-77
2022/07/08 05:52:25;;;;;;;5.45;3.53;;;563.60;2432.00;;;;;;5081927;28;20052;-77
2022/07/08 05:54:51;;;;;;;6.88;4.03;;;563.40;2432.00;;;;;;5084735;28;20508;-78
2022/07/08 05:57:17;;;;;;;6.13;4.28;;;538.50;2406.40;;;;;;5103000;28;20062;-78
2022/07/08 05:59:43;;;;;;;5.38;4.03;;;563.40;2432.00;;;;;;5093637;28;20056;-78
2022/07/08 06:02:09;;;;;;;19.30;8.65;;;538.50;2406.40;;;;;;5080148;28;20017;-77
2022/07/08 06:04:35;;;;;;;13.73;4.63;;;538.40;2406.40;;;;;;5086076;28;20035;-77
2022/07/08 06:07:00;;;;;;;14.68;4.30;;;538.30;2406.40;;;;;;5086906;28;20020;-77
2022/07/08 06:09:26;;;;;;;9.05;3.58;;;538.30;2406.40;;;;;;5091075;28;20106;-76
2022/07/08 06:11:52;;;;;;;6.72;4.53;;;538.50;2406.40;;;;;;5088805;28;20020;-75
2022/07/08 06:14:18;;;;;;;17.02;9.75;;;563.20;2432.00;;;;;;5090192;28;20024;-76
2022/07/08 06:16:47;;;;;;;8.68;4.25;;;563.30;2432.00;;;;;;5080354;28;20031;-76
2022/07/08 06:19:16;;;;;;;6.97;3.42;;;538.50;2406.40;;;;;;5088234;28;20024;-77
2022/07/08 06:21:43;;;;;;;4.82;3.28;;;538.50;2406.40;;;;;;5091694;28;20359;-74
2022/07/08 06:24:09;;;;;;;6.18;3.47;;;538.50;2406.40;;;;;;5091359;28;20103;-83
2022/07/08 06:26:35;;;;;;;5.90;3.63;;;538.50;2406.40;;;;;;5083343;28;20055;-78
2022/07/08 06:29:01;;;;;;;8.43;3.55;;;538.50;2406.40;;;;;;5083508;28;20035;-76
2022/07/08 06:31:26;;;;;;;7.65;3.45;;;538.50;2406.40;;;;;;5073279;28;20017;-77
2022/07/08 06:33:58;;;;;;;10.80;3.85;;;538.50;2406.40;;;;;;5086538;28;20024;-76
2022/07/08 06:36:25;;;;;;;8.25;3.70;;;563.20;2432.00;;;;;;5095238;28;20028;-79
2022/07/08 06:38:51;;;;;;;5.68;3.25;;;563.20;2432.00;;;;;;5083675;28;20020;-77
2022/07/08 06:41:17;;;;;;;6.55;3.67;;;563.60;2432.00;;;;;;5089802;28;20493;-76
2022/07/08 06:43:44;;;;;;;5.93;3.38;;;563.80;2432.00;;;;;;5094593;28;20032;-80
2022/07/08 06:46:10;;;;;;;6.40;3.13;;;563.90;2432.00;;;;;;5100765;28;20028;-76
2022/07/08 06:48:36;;;;;;;5.03;3.22;;;563.80;2432.00;;;;;;5091717;28;20131;-76
2022/07/08 06:51:02;;;;;;;7.20;3.33;;;563.90;2432.00;;;;;;5090808;28;20031;-76
2022/07/08 06:54:34;;;;;;;4.55;2.90;;;563.80;2432.00;;;;;;5094603;28;20099;-77
2022/07/08 06:56:13;;;;;;;4.88;3.03;;;563.90;2432.00;;;;;;5095211;28;20040;-77
2022/07/08 06:58:39;;;;;;;8.30;2.88;;;563.80;2432.00;;;;;;5094817;28;20030;-73
2022/07/08 07:01:05;;;;;;;6.38;3.38;;;564.00;2432.00;;;;;;5094879;28;20030;-79
2022/07/08 07:03:30;;;;;;;5.55;3.28;;;564.10;2432.00;;;;;;5085670;28;20020;-76
2022/07/08 07:05:56;;;;;;;14.05;3.20;;;588.90;2432.00;;;;;;5099848;28;20040;-77
2022/07/08 07:08:22;;;;;;;4.85;2.63;;;588.80;2432.00;;;;;;5092646;28;20031;-76
2022/07/08 07:10:48;;;;;;;11.15;3.60;;;589.10;2432.00;;;;;;5094428;28;20055;-76
2022/07/08 07:13:14;;;;;;;7.80;3.30;;;589.00;2432.00;;;;;;5094690;28;20051;-77
2022/07/08 07:15:40;;;;;;;6.05;3.30;;;589.20;2380.80;;;;;;5093048;28;20032;-77
2022/07/08 07:18:06;;;;;;;7.00;3.35;;;589.50;2432.00;;;;;;5094370;28;20047;-78
2022/07/08 07:20:31;;;;;;;9.55;3.70;;;589.70;2304.00;;;;;;5085114;28;20039;-77
2022/07/08 07:22:57;;;;;;;4.50;2.95;;;614.50;2227.20;;;;;;5086468;28;20074;-77
2022/07/08 07:25:23;;;;;;;5.28;3.00;;;614.60;2227.20;;;;;;5093520;28;20103;-80
2022/07/08 07:27:48;;;;;;;10.68;3.63;;;614.60;2201.60;;;;;;5092658;28;20032;-77
2022/07/08 07:30:14;;;;;;;8.68;3.30;;;614.70;2176.00;;;;;;5093008;28;20031;-79
2022/07/08 07:32:40;;;;;;;10.57;3.47;;;614.70;2124.80;;;;;;5092354;28;20489;-77
2022/07/08 07:35:06;;;;;;;4.47;2.75;;;614.80;2099.20;;;;;;5083203;28;20102;-78
2022/07/08 07:37:38;;;;;;;5.10;2.38;;;614.70;2099.20;;;;;;5088785;28;20024;-77
2022/07/08 07:40:05;;;;;;;4.25;2.50;;;614.70;2073.60;;;;;;5094226;28;20059;-76
2022/07/08 07:42:31;;;;;;;6.22;2.80;;;614.60;2099.20;;;;;;5090311;28;20032;-77
2022/07/08 07:44:56;;;;;;;10.27;2.63;;;614.70;2124.80;;;;;;5092460;28;20020;-77
2022/07/08 07:47:22;;;;;;;6.95;2.97;;;614.90;2124.80;;;;;;5093494;28;20027;-77
2022/07/08 07:49:49;;;;;;;10.13;3.13;;;615.00;2124.80;;;;;;5078391;28;20474;-77
2022/07/08 07:52:15;;;;;;;7.38;2.97;;;615.00;2073.60;;;;;;5085564;28;20071;-78
2022/07/08 07:54:40;;;;;;;9.75;3.20;;;614.90;2073.60;;;;;;5086145;28;20036;-78
2022/07/08 07:57:06;;;;;;;9.45;2.55;;;614.90;2073.60;;;;;;5104658;28;20513;-78
2022/07/08 07:59:32;;;;;;;6.10;2.60;;;614.90;2073.60;;;;;;5096679;28;20028;-78
2022/07/08 08:01:57;;;;;;;9.43;3.20;;;614.90;2073.60;;;;;;5083446;28;20024;-78
2022/07/08 08:04:23;;;;;;;6.00;2.92;;;614.90;2150.40;;;;;;5086633;28;20109;-79
2022/07/08 08:06:49;;;;;;;6.40;3.05;;;615.00;2124.80;;;;;;5093702;28;20370;-77
2022/07/08 08:09:15;;;;;;;4.65;2.75;;;614.90;2150.40;;;;;;5078819;28;20494;-78
2022/07/08 08:11:40;;;;;;;6.70;3.50;;;614.90;2150.40;;;;;;5085584;28;20024;-77
2022/07/08 08:14:06;;;;;;;6.28;2.90;;;614.80;2176.00;;;;;;5083888;28;20031;-78
2022/07/08 08:16:32;;;;;;;7.60;2.83;;;614.80;2176.00;;;;;;5086630;28;20062;-77
2022/07/08 08:18:58;;;;;;;5.80;2.80;;;614.80;2201.60;;;;;;5093149;28;20020;-77
2022/07/08 08:21:24;;;;;;;10.45;3.10;;;614.70;2201.60;;;;;;5082352;28;20479;-78
2022/07/08 08:23:50;;;;;;;10.65;2.83;;;614.70;2201.60;;;;;;5087105;28;20115;-77
2022/07/08 08:26:16;;;;;;;6.93;2.80;;;614.70;2201.60;;;;;;5091417;28;20028;-78
2022/07/08 08:28:42;;;;;;;4.20;2.63;;;614.70;2201.60;;;;;;5092998;28;20371;-77
2022/07/08 08:31:08;;;;;;;6.32;2.15;;;614.70;2176.00;;;;;;5071905;28;20478;-78
2022/07/08 08:33:34;;;;;;;7.80;2.80;;;614.80;2150.40;;;;;;5084150;28;20133;-78
2022/07/08 08:36:00;;;;;;;6.90;3.00;;;614.70;2176.00;;;;;;5091031;28;20032;-77
2022/07/08 08:38:26;;;;;;;6.03;2.90;;;614.80;2201.60;;;;;;5085318;28;20020;-77
2022/07/08 08:40:58;;;;;;;5.82;3.15;;;615.10;2176.00;;;;;;5071418;28;20035;-77
2022/07/08 08:43:24;;;;;;;10.95;3.38;;;615.10;2176.00;;;;;;5091754;28;20008;-77
2022/07/08 08:45:52;;;;;;;7.15;3.08;;;615.20;2099.20;;;;;;5092825;28;20363;-77
2022/07/08 08:48:25;;;;;;;5.60;3.10;;;615.30;2099.20;;;;;;5076870;28;20042;-77
2022/07/08 08:50:56;;;;;;;6.15;2.70;;;640.00;2048.00;;;;;;5092755;28;20405;-78
2022/07/08 08:53:29;;;;;;;5.15;2.58;;;640.00;2048.00;;;;;;5092359;28;20016;-78
2022/07/08 08:55:56;;;;;;;4.07;2.85;;;640.10;2048.00;;;;;;5082901;28;20054;-78
2022/07/08 08:58:23;;;;;;;8.50;2.78;;;640.00;2073.60;;;;;;5100210;28;20020;-77
2022/07/08 09:00:49;;;;;;;10.15;2.90;;;640.30;2022.40;;;;;;5091059;28;20042;-77
2022/07/08 09:03:14;;;;;;;14.45;3.03;;;640.80;2022.40;;;;;;5092144;28;20458;-78
2022/07/08 09:05:40;;;;;;;7.70;2.63;;;640.40;2048.00;;;;;;5090783;28;20070;-78
2022/07/08 09:08:06;;;;;;;7.97;3.40;;;640.50;1996.80;;;;;;5092239;28;20474;-77
2022/07/08 09:10:32;;;;;;;6.22;2.65;;;640.50;1996.80;;;;;;5091800;28;20107;-77
2022/07/08 09:13:00;;;;;;;11.05;2.97;;;640.30;2022.40;;;;;;5091258;28;20016;-78
2022/07/08 09:15:33;;;;;;;6.10;2.78;;;640.50;2022.40;;;;;;5092229;28;20032;-78
2022/07/08 09:18:07;;;;;;;5.68;2.30;;;640.40;2022.40;;;;;;5092571;28;20016;-79
2022/07/08 09:20:45;;;;;;;4.53;2.70;;;640.40;2022.40;;;;;;5092240;28;20023;-79
2022/07/08 09:23:16;;;;;;;8.95;2.83;;;640.40;1996.80;;;;;;5090637;28;20550;-77
2022/07/08 09:25:44;;;;;;;3.83;2.45;;;640.40;1971.20;;;;;;5077676;28;20478;-77
2022/07/08 09:28:10;;;;;;;6.32;3.03;;;640.30;1996.80;;;;;;5092005;28;20043;-78
2022/07/08 09:30:36;;;;;;;15.20;7.20;;;640.40;1996.80;;;;;;5076773;28;20486;-79
2022/07/08 09:33:02;;;;;;;6.63;3.42;;;640.50;1996.80;;;;;;5082701;28;20115;-78
2022/07/08 09:35:39;;;;;;;5.90;2.80;;;640.50;1971.20;;;;;;5098227;28;20035;-77
2022/07/08 09:38:08;;;;;;;7.20;2.72;;;640.50;1971.20;;;;;;5078378;28;20049;-79
2022/07/08 09:40:35;;;;;;;4.75;3.05;;;640.50;1971.20;;;;;;5076505;28;20027;-77
2022/07/08 09:43:12;;;;;;;7.10;3.28;;;640.50;1945.60;;;;;;5071969;28;20025;-79
2022/07/08 09:45:38;;;;;;;5.10;2.90;;;640.50;1920.00;;;;;;5065608;28;20020;-78
2022/07/08 09:48:09;;;;;;;5.32;2.92;;;640.70;1945.60;;;;;;5076423;28;20114;-78
2022/07/08 09:50:47;;;;;;;3.90;2.42;;;640.80;1920.00;;;;;;5080354;28;20032;-77
2022/07/08 09:53:24;;;;;;;3.92;2.53;;;640.60;1894.40;;;;;;5091651;28;20620;-77
2022/07/08 09:55:52;;;;;;;5.55;2.50;;;640.60;1894.40;;;;;;5078694;28;20127;-77
2022/07/08 09:58:20;;;;;;;7.78;2.60;;;640.90;1920.00;;;;;;5105373;28;20062;-77
2022/07/08 10:00:51;;;;;;;5.47;2.72;;;640.90;1843.20;;;;;;5091917;28;20492;-78
2022/07/08 10:03:18;;;;;;;8.45;2.97;;;665.70;1843.20;;;;;;5091902;28;20027;-78
2022/07/08 10:05:44;;;;;;;3.13;2.30;;;665.70;1792.00;;;;;;5080318;28;20024;-77
2022/07/08 10:08:11;;;;;;;5.85;2.33;;;665.90;1792.00;;;;;;5090350;28;20047;-77
2022/07/08 10:10:40;;;;;;;3.80;2.42;;;665.90;1766.40;;;;;;5095384;28;20085;-77
2022/07/08 10:13:06;;;;;;;5.60;2.90;;;666.10;1766.40;;;;;;5094496;28;20024;-78
2022/07/08 10:15:34;;;;;;;5.07;3.35;;;666.20;1740.80;;;;;;5085897;28;20360;-77
2022/07/08 10:18:18;;;;;;;6.15;2.40;;;665.90;1715.20;;;;;;5102874;28;20016;-77
2022/07/08 10:20:48;;;;;;;4.07;2.22;;;666.10;1715.20;;;;;;5106031;28;20374;-77
2022/07/08 10:23:32;;;;;;;4.40;2.75;;;666.20;1715.20;;;;;;5093781;28;20032;-77
2022/07/08 10:25:59;;;;;;;5.45;2.85;;;666.20;1689.60;;;;;;5092378;28;20024;-77
2022/07/08 10:28:35;;;;;;;5.03;2.55;;;666.20;1689.60;;;;;;5092481;28;20054;-78
2022/07/08 10:31:01;;;;;;;4.63;2.58;;;666.30;1689.60;;;;;;5093000;28;20032;-77
2022/07/08 10:33:30;;;;;;;7.07;2.78;;;666.30;1664.00;;;;;;5093947;28;20031;-76
2022/07/08 10:36:01;;;;;;;5.40;2.80;;;666.30;1664.00;;;;;;5093487;28;20115;-77
2022/07/08 10:38:47;;;;;;;7.72;2.70;;;666.40;1664.00;;;;;;5095372;28;20104;-77
2022/07/08 10:41:21;;;;;;;5.32;2.35;;;666.50;1664.00;;;;;;5075044;28;20115;-77
2022/07/08 10:44:05;;;;;;;11.23;2.67;;;666.50;1638.40;;;;;;5086533;28;20032;-78
2022/07/08 10:46:31;;;;;;;4.50;2.60;;;666.50;1612.80;;;;;;5094892;28;20074;-78
2022/07/08 10:49:01;;;;;;;5.05;2.50;;;691.20;1664.00;;;;;;5081438;28;20046;-77
2022/07/08 10:51:28;;;;;;;8.02;3.38;;;691.20;1612.80;;;;;;5106004;28;20050;-79
2022/07/08 10:53:54;;;;;;;5.80;2.72;;;691.30;1587.20;;;;;;5092972;28;20028;-78
2022/07/08 10:56:48;;;;;;;5.97;2.47;;;691.50;1587.20;;;;;;5092260;28;20084;-80
2022/07/08 10:59:19;;;;;;;8.13;2.47;;;691.60;1587.20;;;;;;5092612;28;20089;-77
2022/07/08 11:01:53;;;;;;;8.40;2.55;;;691.70;1561.60;;;;;;5094461;28;20515;-77
2022/07/08 11:04:42;;;;;;;8.35;2.95;;;691.80;1561.60;;;;;;5094280;28;20022;-80
2022/07/08 11:07:29;;;;;;;7.45;2.45;;;692.00;1561.60;;;;;;5008880;28;20034;-77
2022/07/08 11:10:13;;;;;;;7.53;2.33;;;692.10;1536.00;;;;;;5029921;28;20037;-77
2022/07/08 11:12:43;;;;;;;4.13;2.40;;;716.80;1561.60;;;;;;5014792;28;20056;-77
2022/07/08 11:15:17;;;;;;;4.63;2.55;;;716.90;1536.00;;;;;;5031651;28;20040;-77
2022/07/08 11:17:45;;;;;;;5.07;2.40;;;717.00;1536.00;;;;;;5014857;28;20032;-77
2022/07/08 11:20:14;;;;;;;6.38;2.50;;;717.20;1510.40;;;;;;5014522;28;20025;-77
2022/07/08 11:22:42;;;;;;;4.68;2.45;;;717.40;1459.20;;;;;;5031504;28;20025;-77
2022/07/08 11:25:16;;;;;;;4.00;2.47;;;717.50;1459.20;;;;;;5031684;28;20498;-77
2022/07/08 11:27:42;;;;;;;7.60;2.28;;;742.40;1459.20;;;;;;5015172;28;20103;-78
2022/07/08 11:30:11;;;;;;;6.53;2.10;;;742.60;1433.60;;;;;;5014991;28;20033;-78
2022/07/08 11:32:38;;;;;;;7.43;2.40;;;742.70;1433.60;;;;;;5014606;28;20026;-78
2022/07/08 11:35:04;;;;;;;5.60;3.10;;;742.70;1408.00;;;;;;5015328;28;20079;-79
2022/07/08 11:37:32;;;;;;;8.00;2.50;;;742.80;1433.60;;;;;;5031365;28;20021;-77
2022/07/08 11:39:59;;;;;;;5.70;2.47;;;742.80;1408.00;;;;;;5011697;28;20125;-77
2022/07/08 11:42:25;;;;;;;5.00;2.80;;;742.80;1433.60;;;;;;5012903;28;20118;-77
2022/07/08 11:44:52;;;;;;;5.53;2.58;;;742.80;1382.40;;;;;;5077169;28;20509;-78
2022/07/08 11:47:22;;;;;;;5.97;2.35;;;742.50;1356.80;;;;;;5072117;28;20116;-78
2022/07/08 11:49:49;;;;;;;12.85;3.17;;;742.40;1356.80;;;;;;5068287;28;20032;-78
2022/07/08 11:52:17;;;;;;;10.10;2.65;;;717.70;1331.20;;;;;;5093705;28;20024;-77
2022/07/08 11:54:45;;;;;;;4.60;2.40;;;717.70;1331.20;;;;;;5074721;28;20036;-78
2022/07/08 11:57:12;;;;;;;8.50;2.63;;;717.50;1356.80;;;;;;5086719;28;20401;-78
2022/07/08 11:59:38;;;;;;;7.20;2.35;;;717.60;1356.80;;;;;;5077709;28;20093;-77
2022/07/08 12:02:05;;;;;;;3.33;2.10;;;717.50;1356.80;;;;;;5065615;28;20537;-78
2022/07/08 12:04:31;;;;;;;4.50;1.98;;;717.40;1331.20;;;;;;5089503;28;20027;-77
2022/07/08 12:06:59;;;;;;;3.95;2.20;;;717.50;1331.20;;;;;;5067563;28;20116;-77
2022/07/08 12:09:26;;;;;;;5.88;2.33;;;717.50;1331.20;;;;;;5069459;28;20035;-77
2022/07/08 12:11:53;;;;;;;6.85;2.45;;;717.50;1331.20;;;;;;5068992;28;20078;-79
2022/07/08 12:14:21;;;;;;;7.80;2.42;;;717.50;1356.80;;;;;;5081814;28;20027;-79
2022/07/08 12:16:56;;;;;;;6.20;2.42;;;717.60;1331.20;;;;;;5092211;28;20099;-78
2022/07/08 12:19:37;;;;;;;7.63;2.55;;;717.50;1331.20;;;;;;5077583;28;20036;-82